createdAt,value
2019-04-25T00:00:52.850Z,23.98
2019-04-25T00:03:22.359Z,24.00
2019-04-25T00:05:50.167Z,23.98
2019-04-25T00:08:17.882Z,24.04
2019-04-25T00:10:45.601Z,23.96
2019-04-25T00:13:13.709Z,24.01
2019-04-25T00:15:41.941Z,23.92
2019-04-25T00:18:11.931Z,24.00
2019-04-25T00:20:43.611Z,23.87
2019-04-25T00:23:15.103Z,23.89
2019-04-25T00:26:01.341Z,23.95
2019-04-25T00:28:29.150Z,23.95
2019-04-25T00:30:56.868Z,23.92
2019-04-25T00:33:24.583Z,23.94
2019-04-25T00:35:52.767Z,23.87
2019-04-25T00:38:22.097Z,23.85
2019-04-25T00:40:50.593Z,23.84
2019-04-25T00:43:19.464Z,23.76
2019-04-25T00:45:47.479Z,23.76
2019-04-25T00:48:15.267Z,23.62
2019-04-25T00:50:43.658Z,23.70
2019-04-25T00:53:12.265Z,23.74
2019-04-25T00:55:41.406Z,23.75
2019-04-25T00:58:15.396Z,23.72
2019-04-25T01:01:02.051Z,23.72
2019-04-25T01:03:31.709Z,23.70
2019-04-25T01:05:59.526Z,23.60
2019-04-25T01:08:27.275Z,23.44
2019-04-25T01:10:55.004Z,23.44
2019-04-25T01:13:22.748Z,23.37
2019-04-25T01:15:52.179Z,23.35
2019-04-25T01:18:19.971Z,23.46
2019-04-25T01:20:49.052Z,23.30
2019-04-25T01:23:16.768Z,23.23
2019-04-25T01:25:45.896Z,23.07
2019-04-25T01:28:13.948Z,22.98
2019-04-25T01:30:41.975Z,23.17
2019-04-25T01:33:10.473Z,23.31
2019-04-25T01:35:44.920Z,23.28
2019-04-25T01:38:41.110Z,23.31
2019-04-25T01:41:28.178Z,23.31
2019-04-25T01:43:59.676Z,23.27
2019-04-25T01:46:27.727Z,23.26
2019-04-25T01:48:55.475Z,23.22
2019-04-25T01:51:24.029Z,23.18
2019-04-25T01:53:52.619Z,23.23
2019-04-25T01:56:22.986Z,23.24
2019-04-25T01:58:51.145Z,23.13
2019-04-25T02:01:19.309Z,23.10
2019-04-25T02:03:47.246Z,23.17
2019-04-25T02:06:14.967Z,23.16
2019-04-25T02:08:44.020Z,23.11
2019-04-25T02:11:26.662Z,23.11
2019-04-25T02:13:54.969Z,23.10
2019-04-25T02:16:23.845Z,23.09
2019-04-25T02:18:52.437Z,23.11
2019-04-25T02:21:21.062Z,23.10
2019-04-25T02:23:48.831Z,23.17
2019-04-25T02:26:18.545Z,23.20
2019-04-25T02:28:46.299Z,23.15
2019-04-25T02:31:17.929Z,23.09
2019-04-25T02:33:44.298Z,23.04
2019-04-25T02:36:14.459Z,23.02
2019-04-25T02:38:44.012Z,23.05
2019-04-25T02:41:11.059Z,23.04
2019-04-25T02:43:38.797Z,23.07
2019-04-25T02:46:31.769Z,23.04
2019-04-25T02:49:33.048Z,22.99
2019-04-25T02:52:18.084Z,23.00
2019-04-25T02:54:45.476Z,23.01
2019-04-25T02:57:14.623Z,22.87
2019-04-25T02:59:44.829Z,22.79
2019-04-25T03:02:12.070Z,22.79
2019-04-25T03:04:39.870Z,22.84
2019-04-25T03:07:11.047Z,22.81
2019-04-25T03:09:37.053Z,22.80
2019-04-25T03:12:06.601Z,22.80
2019-04-25T03:14:35.203Z,22.70
2019-04-25T03:17:05.236Z,22.76
2019-04-25T03:19:50.542Z,22.68
2019-04-25T03:22:21.309Z,22.67
2019-04-25T03:24:49.111Z,22.65
2019-04-25T03:27:16.855Z,22.63
2019-04-25T03:29:45.746Z,22.48
2019-04-25T03:32:18.749Z,22.40
2019-04-25T03:34:43.499Z,22.24
2019-04-25T03:37:11.550Z,22.29
2019-04-25T03:39:39.279Z,21.88
2019-04-25T03:42:07.767Z,22.26
2019-04-25T03:44:35.751Z,22.39
2019-04-25T03:47:05.925Z,22.27
2019-04-25T03:49:33.671Z,22.25
2019-04-25T03:52:02.285Z,22.35
2019-04-25T03:54:30.558Z,22.17
2019-04-25T03:56:58.272Z,22.17
2019-04-25T03:59:26.002Z,22.22
2019-04-25T04:01:54.236Z,21.95
2019-04-25T04:04:23.579Z,22.09
2019-04-25T04:06:51.558Z,21.99
2019-04-25T04:09:19.360Z,21.89
2019-04-25T04:11:47.070Z,21.73
2019-04-25T04:14:15.713Z,21.81
2019-04-25T04:17:05.095Z,21.67
2019-04-25T04:19:36.884Z,21.55
2019-04-25T04:22:15.424Z,21.12
2019-04-25T04:24:47.859Z,21.53
2019-04-25T04:27:17.620Z,21.65
2019-04-25T04:29:45.405Z,21.70
2019-04-25T04:32:14.863Z,21.77
2019-04-25T04:34:43.551Z,21.78
2019-04-25T04:37:13.963Z,21.82
2019-04-25T04:39:43.608Z,21.86
2019-04-25T04:42:11.679Z,21.82
2019-04-25T04:44:39.543Z,21.69
2019-04-25T04:47:08.468Z,21.32
2019-04-25T04:49:36.243Z,21.23
2019-04-25T04:52:06.138Z,21.17
2019-04-25T04:54:34.441Z,21.31
2019-04-25T04:57:16.175Z,21.57
2019-04-25T04:59:31.786Z,21.58
2019-04-25T05:02:24.496Z,21.52
2019-04-25T05:05:19.262Z,21.59
2019-04-25T05:07:49.245Z,21.63
2019-04-25T05:10:18.690Z,21.64
2019-04-25T05:12:46.620Z,21.57
2019-04-25T05:15:16.251Z,21.55
2019-04-25T05:17:44.076Z,21.66
2019-04-25T05:20:12.022Z,21.54
2019-04-25T05:22:40.623Z,21.66
2019-04-25T05:25:08.382Z,21.68
2019-04-25T05:27:50.724Z,21.70
2019-04-25T05:30:07.002Z,21.74
2019-04-25T05:32:34.770Z,21.87
2019-04-25T05:35:03.331Z,21.76
2019-04-25T05:37:31.155Z,21.77
2019-04-25T05:39:58.862Z,21.73
2019-04-25T05:42:47.651Z,21.70
2019-04-25T05:45:17.505Z,21.82
2019-04-25T05:47:45.286Z,21.95
2019-04-25T05:50:13.889Z,22.14
2019-04-25T05:52:41.724Z,22.06
2019-04-25T05:55:09.440Z,21.95
2019-04-25T05:57:45.681Z,22.07
2019-04-25T06:00:07.774Z,22.18
2019-04-25T06:02:35.510Z,22.11
2019-04-25T06:05:03.610Z,22.23
2019-04-25T06:07:31.347Z,22.22
2019-04-25T06:10:21.759Z,22.16
2019-04-25T06:13:07.330Z,22.19
2019-04-25T06:15:35.406Z,22.17
2019-04-25T06:18:30.830Z,22.16
2019-04-25T06:20:58.556Z,22.20
2019-04-25T06:23:46.118Z,22.16
2019-04-25T06:26:23.032Z,22.22
2019-04-25T06:28:53.710Z,22.21
2019-04-25T06:31:13.799Z,22.28
2019-04-25T06:33:43.231Z,22.22
2019-04-25T06:36:11.226Z,22.29
2019-04-25T06:38:38.979Z,22.25
2019-04-25T06:41:10.285Z,22.28
2019-04-25T06:43:40.776Z,22.25
2019-04-25T06:46:24.787Z,22.22
2019-04-25T06:49:03.420Z,22.31
2019-04-25T06:51:50.262Z,22.27
2019-04-25T06:54:29.791Z,22.26
2019-04-25T06:56:53.634Z,22.24
2019-04-25T06:59:23.020Z,22.21
2019-04-25T07:01:50.907Z,22.31
2019-04-25T07:04:18.663Z,22.26
2019-04-25T07:06:46.582Z,22.24
2019-04-25T07:09:14.748Z,22.25
2019-04-25T07:11:44.067Z,22.20
2019-04-25T07:14:12.082Z,22.30
2019-04-25T07:16:39.806Z,22.25
2019-04-25T07:19:07.514Z,22.27
2019-04-25T07:21:35.637Z,22.32
2019-04-25T07:24:04.149Z,21.99
2019-04-25T07:26:56.902Z,22.24
2019-04-25T07:29:49.526Z,22.28
2019-04-25T07:32:24.621Z,22.24
2019-04-25T07:34:53.619Z,22.24
2019-04-25T07:37:24.174Z,22.31
2019-04-25T07:39:57.486Z,22.31
2019-04-25T07:42:25.921Z,22.35
2019-04-25T07:44:55.188Z,22.28
2019-04-25T07:47:24.232Z,22.30
2019-04-25T07:49:52.147Z,22.33
2019-04-25T07:52:19.862Z,22.25
2019-04-25T07:54:47.613Z,22.23
2019-04-25T07:57:15.392Z,22.32
2019-04-25T07:59:43.671Z,22.30
2019-04-25T08:02:13.261Z,22.33
2019-04-25T08:04:40.987Z,22.37
2019-04-25T08:07:08.706Z,22.41
2019-04-25T08:09:37.057Z,22.38
2019-04-25T08:12:05.634Z,22.09
2019-04-25T08:14:54.717Z,22.41
2019-04-25T08:17:40.476Z,22.40
2019-04-25T08:20:08.363Z,22.46
2019-04-25T08:22:50.095Z,22.44
2019-04-25T08:25:06.034Z,22.54
2019-04-25T08:27:34.769Z,22.51
2019-04-25T08:30:04.332Z,22.49
2019-04-25T08:32:37.708Z,22.48
2019-04-25T08:35:07.610Z,22.52
2019-04-25T08:37:36.540Z,22.61
2019-04-25T08:40:04.604Z,22.66
2019-04-25T08:42:33.956Z,22.68
2019-04-25T08:45:03.572Z,22.74
2019-04-25T08:47:31.427Z,22.77
2019-04-25T08:50:04.322Z,22.68
2019-04-25T08:52:32.047Z,22.80
2019-04-25T08:55:04.353Z,22.76
2019-04-25T08:57:49.921Z,22.85
2019-04-25T09:00:25.642Z,22.79
2019-04-25T09:02:57.516Z,22.64
2019-04-25T09:05:29.931Z,22.68
2019-04-25T09:07:57.830Z,22.75
2019-04-25T09:10:25.555Z,22.82
2019-04-25T09:12:53.718Z,22.79
2019-04-25T09:15:21.809Z,22.79
2019-04-25T09:17:49.579Z,22.82
2019-04-25T09:20:17.314Z,22.77
2019-04-25T09:22:45.556Z,22.80
2019-04-25T09:25:13.837Z,22.77
2019-04-25T09:27:49.881Z,22.72
2019-04-25T09:30:14.515Z,22.75
2019-04-25T09:32:42.931Z,22.88
2019-04-25T09:35:13.562Z,22.86
2019-04-25T09:37:41.086Z,22.93
2019-04-25T09:40:14.050Z,22.87
2019-04-25T09:42:43.813Z,22.98
2019-04-25T09:45:48.637Z,22.99
2019-04-25T09:48:23.179Z,22.92
2019-04-25T09:50:55.298Z,23.02
2019-04-25T09:53:25.815Z,23.06
2019-04-25T09:56:14.662Z,23.00
2019-04-25T09:58:57.846Z,23.02
2019-04-25T10:01:26.391Z,23.05
2019-04-25T10:03:54.423Z,23.02
2019-04-25T10:06:23.366Z,23.04
2019-04-25T10:08:51.204Z,23.12
2019-04-25T10:11:19.011Z,23.18
2019-04-25T10:13:48.826Z,23.22
2019-04-25T10:16:16.557Z,23.23
2019-04-25T10:18:44.715Z,23.25
2019-04-25T10:21:14.630Z,23.29
2019-04-25T10:23:45.006Z,23.32
2019-04-25T10:26:12.093Z,23.32
2019-04-25T10:28:54.140Z,23.32
2019-04-25T10:31:16.778Z,23.37
2019-04-25T10:33:46.677Z,23.40
2019-04-25T10:36:14.448Z,23.44
2019-04-25T10:38:42.442Z,23.44
2019-04-25T10:41:10.784Z,23.47
2019-04-25T10:43:39.515Z,23.49
2019-04-25T10:46:08.113Z,23.52
2019-04-25T10:48:36.154Z,23.54
2019-04-25T10:51:04.217Z,23.56
2019-04-25T10:53:33.731Z,23.65
2019-04-25T10:56:03.746Z,23.68
2019-04-25T10:58:31.177Z,23.71
2019-04-25T11:00:58.982Z,23.73
2019-04-25T11:03:45.818Z,23.79
2019-04-25T11:06:15.794Z,23.82
2019-04-25T11:08:43.531Z,23.79
2019-04-25T11:11:11.231Z,23.48
2019-04-25T11:13:39.068Z,23.84
2019-04-25T11:16:07.577Z,23.79
2019-04-25T11:18:35.319Z,23.94
2019-04-25T11:21:05.750Z,23.92
2019-04-25T11:23:32.609Z,24.00
2019-04-25T11:26:00.363Z,24.02
2019-04-25T11:28:28.069Z,24.04
2019-04-25T11:30:55.899Z,24.10
2019-04-25T11:33:34.101Z,24.12
2019-04-25T11:36:01.845Z,24.14
2019-04-25T11:38:54.766Z,24.16
2019-04-25T11:41:24.261Z,24.20
2019-04-25T11:43:52.108Z,24.18
2019-04-25T11:46:19.851Z,24.28
2019-04-25T11:48:48.174Z,24.33
2019-04-25T11:51:16.120Z,24.33
2019-04-25T11:53:45.085Z,24.46
2019-04-25T11:56:19.548Z,24.50
2019-04-25T11:58:48.113Z,24.57
2019-04-25T12:01:17.083Z,24.65
2019-04-25T12:03:46.602Z,24.66
2019-04-25T12:06:14.296Z,24.72
2019-04-25T12:08:42.033Z,24.73
2019-04-25T12:11:09.891Z,24.73
2019-04-25T12:13:37.638Z,24.75
2019-04-25T12:16:05.427Z,24.76
2019-04-25T12:18:33.868Z,24.78
2019-04-25T12:21:04.148Z,24.70
2019-04-25T12:23:33.939Z,24.79
2019-04-25T12:26:03.791Z,24.76
2019-04-25T12:28:33.788Z,24.85
2019-04-25T12:31:01.897Z,24.84
2019-04-25T12:33:30.354Z,24.92
2019-04-25T12:35:58.708Z,24.87
2019-04-25T12:38:27.053Z,24.79
2019-04-25T12:40:55.351Z,24.76
2019-04-25T12:43:25.228Z,24.79
2019-04-25T12:46:20.850Z,24.79
2019-04-25T12:48:49.522Z,24.92
2019-04-25T12:51:18.283Z,24.91
2019-04-25T12:53:47.974Z,24.99
2019-04-25T12:56:16.218Z,25.00
2019-04-25T12:58:44.374Z,24.98
2019-04-25T13:01:12.506Z,25.04
2019-04-25T13:03:40.715Z,25.13
2019-04-25T13:06:08.833Z,25.19
2019-04-25T13:08:36.825Z,25.23
2019-04-25T13:11:09.886Z,25.19
2019-04-25T13:13:34.753Z,25.25
2019-04-25T13:16:04.364Z,25.40
2019-04-25T13:18:32.911Z,25.37
2019-04-25T13:21:01.470Z,25.43
2019-04-25T13:23:31.942Z,25.45
2019-04-25T13:26:00.019Z,25.51
2019-04-25T13:28:50.261Z,25.44
2019-04-25T13:31:56.134Z,25.52
2019-04-25T13:34:45.874Z,25.48
2019-04-25T13:37:14.533Z,25.64
2019-04-25T13:39:44.180Z,25.64
2019-04-25T13:42:14.358Z,25.64
2019-04-25T13:44:44.278Z,25.62
2019-04-25T13:47:14.048Z,25.58
2019-04-25T13:49:42.749Z,25.63
2019-04-25T13:52:11.024Z,25.72
2019-04-25T13:54:39.101Z,25.65
2019-04-25T13:57:07.147Z,25.76
2019-04-25T13:59:35.294Z,25.72
2019-04-25T14:02:06.111Z,25.67
2019-04-25T14:04:35.765Z,25.72
2019-04-25T14:07:04.715Z,25.77
2019-04-25T14:09:34.774Z,25.84
2019-04-25T14:12:04.018Z,25.87
2019-04-25T14:14:35.843Z,25.92
2019-04-25T14:17:21.641Z,25.85
2019-04-25T14:20:00.619Z,25.85
2019-04-25T14:22:30.327Z,25.86
2019-04-25T14:25:06.861Z,25.75
2019-04-25T14:27:35.859Z,25.87
2019-04-25T14:30:04.693Z,25.98
2019-04-25T14:32:35.084Z,25.95
2019-04-25T14:35:07.286Z,25.88
2019-04-25T14:37:43.952Z,25.88
2019-04-25T14:40:10.507Z,25.87
2019-04-25T14:42:39.211Z,25.93
2019-04-25T14:45:08.162Z,26.01
2019-04-25T14:47:48.147Z,26.01
2019-04-25T14:50:20.125Z,26.00
2019-04-25T14:53:00.041Z,25.95
2019-04-25T14:55:46.051Z,25.99
2019-04-25T14:58:15.926Z,26.11
2019-04-25T15:00:45.169Z,26.17
2019-04-25T15:03:13.865Z,25.98
2019-04-25T15:05:46.190Z,26.10
2019-04-25T15:08:14.558Z,26.11
2019-04-25T15:10:42.689Z,26.13
2019-04-25T15:13:10.641Z,26.13
2019-04-25T15:15:38.670Z,26.20
2019-04-25T15:18:06.850Z,26.21
2019-04-25T15:20:35.122Z,26.21
2019-04-25T15:23:03.117Z,26.26
2019-04-25T15:25:31.851Z,26.29
2019-04-25T15:28:00.094Z,26.28
2019-04-25T15:30:30.951Z,26.30
2019-04-25T15:32:59.088Z,26.24
2019-04-25T15:35:34.491Z,26.24
2019-04-25T15:38:07.088Z,26.27
2019-04-25T15:40:41.192Z,26.24
2019-04-25T15:43:34.211Z,26.24
2019-04-25T15:46:17.403Z,26.24
2019-04-25T15:48:47.407Z,26.24
2019-04-25T15:51:15.778Z,26.25
2019-04-25T15:53:44.122Z,26.36
2019-04-25T15:56:12.505Z,26.36
2019-04-25T15:58:43.417Z,26.36
2019-04-25T16:01:11.637Z,26.36
2019-04-25T16:03:39.897Z,26.39
2019-04-25T16:06:09.140Z,26.41
2019-04-25T16:08:37.855Z,26.40
2019-04-25T16:11:42.687Z,26.36
2019-04-25T16:14:10.541Z,26.30
2019-04-25T16:16:38.408Z,26.25
2019-04-25T16:19:06.459Z,26.25
2019-04-25T16:21:34.274Z,26.33
2019-04-25T16:24:02.313Z,26.39
2019-04-25T16:26:30.196Z,26.36
2019-04-25T16:28:57.992Z,26.35
2019-04-25T16:31:26.338Z,26.33
2019-04-25T16:33:54.106Z,26.25
2019-04-25T16:36:22.048Z,26.31
2019-04-25T16:38:50.221Z,26.31
2019-04-25T16:41:18.507Z,26.34
2019-04-25T16:43:49.584Z,26.33
2019-04-25T16:46:18.029Z,26.33
2019-04-25T16:48:45.940Z,26.38
2019-04-25T16:51:13.920Z,26.47
2019-04-25T16:53:42.259Z,26.42
2019-04-25T16:56:10.497Z,26.42
2019-04-25T16:58:38.697Z,26.39
2019-04-25T17:01:10.842Z,26.39
2019-04-25T17:03:39.417Z,26.38
2019-04-25T17:06:08.283Z,26.40
2019-04-25T17:08:36.337Z,26.36
2019-04-25T17:11:04.793Z,26.37
2019-04-25T17:13:34.220Z,26.36
2019-04-25T17:16:16.040Z,26.31
2019-04-25T17:19:02.906Z,26.32
2019-04-25T17:21:32.389Z,26.33
2019-04-25T17:24:00.435Z,26.37
2019-04-25T17:26:28.253Z,26.34
2019-04-25T17:28:58.308Z,26.34
2019-04-25T17:31:33.964Z,26.32
2019-04-25T17:34:21.102Z,26.26
2019-04-25T17:37:14.582Z,26.24
2019-04-25T17:39:44.110Z,26.28
2019-04-25T17:42:11.870Z,26.25
2019-04-25T17:44:40.531Z,26.26
2019-04-25T17:47:08.404Z,26.21
2019-04-25T17:49:36.797Z,26.19
2019-04-25T17:52:05.001Z,26.25
2019-04-25T17:54:32.925Z,26.21
2019-04-25T17:57:00.748Z,26.21
2019-04-25T17:59:28.713Z,26.23
2019-04-25T18:01:56.652Z,26.18
2019-04-25T18:04:24.419Z,26.21
2019-04-25T18:06:52.188Z,26.24
2019-04-25T18:09:20.062Z,26.25
2019-04-25T18:11:53.099Z,26.25
2019-04-25T18:14:21.196Z,26.24
2019-04-25T18:16:49.274Z,26.27
2019-04-25T18:19:20.767Z,26.20
2019-04-25T18:21:48.666Z,26.17
2019-04-25T18:27:26.062Z,26.12
2019-04-25T18:29:55.081Z,26.09
2019-04-25T18:32:24.039Z,26.08
2019-04-25T18:35:05.756Z,26.04
2019-04-25T18:38:00.412Z,25.96
2019-04-25T18:40:33.497Z,25.93
2019-04-25T18:43:32.409Z,25.86
2019-04-25T18:46:04.505Z,25.81
2019-04-25T18:48:51.609Z,25.88
2019-04-25T18:51:22.523Z,25.84
2019-04-25T18:57:37.562Z,25.77
2019-04-25T19:00:37.789Z,25.75
2019-04-25T19:03:34.388Z,25.65
2019-04-25T19:06:04.533Z,25.64
2019-04-25T19:08:32.300Z,25.55
2019-04-25T19:11:00.190Z,25.57
2019-04-25T19:13:27.988Z,25.52
2019-04-25T19:15:55.875Z,25.46
2019-04-25T19:18:23.764Z,25.53
2019-04-25T19:20:52.370Z,25.42
2019-04-25T19:23:21.819Z,25.44
2019-04-25T19:25:49.677Z,25.44
2019-04-25T19:28:17.452Z,25.47
2019-04-25T19:30:45.425Z,25.45
2019-04-25T19:33:13.181Z,25.33
2019-04-25T19:35:41.698Z,25.33
2019-04-25T19:38:09.601Z,25.20
2019-04-25T19:40:48.196Z,25.20
2019-04-25T19:43:24.147Z,25.18
2019-04-25T19:45:51.913Z,25.20
2019-04-25T19:48:19.781Z,25.06
2019-04-25T19:50:50.570Z,25.03
2019-04-25T19:53:17.178Z,25.12
2019-04-25T19:55:45.474Z,25.02
2019-04-25T19:58:13.379Z,25.06
2019-04-25T20:00:43.131Z,25.03
2019-04-25T20:03:19.888Z,24.97
2019-04-25T20:05:59.405Z,24.97
2019-04-25T20:08:45.182Z,24.82
2019-04-25T20:11:19.559Z,24.82
2019-04-25T20:13:56.071Z,24.79
2019-04-25T20:16:23.881Z,24.77
2019-04-25T20:18:51.872Z,24.65
2019-04-25T20:21:20.202Z,24.67
2019-04-25T20:23:48.072Z,24.75
2019-04-25T20:26:15.937Z,24.67
2019-04-25T20:28:44.881Z,24.59
2019-04-25T20:31:12.842Z,24.46
2019-04-25T20:33:40.609Z,24.41
2019-04-25T20:36:17.711Z,24.51
2019-04-25T20:38:37.864Z,24.35
2019-04-25T20:41:05.744Z,24.51
2019-04-25T20:43:33.676Z,24.56
2019-04-25T20:46:01.496Z,24.56
2019-04-25T20:48:32.221Z,24.46
2019-04-25T20:51:00.044Z,23.85
2019-04-25T20:53:27.867Z,24.30
2019-04-25T20:55:55.666Z,24.26
2019-04-25T20:58:23.424Z,23.71
2019-04-25T21:00:54.000Z,24.27
2019-04-25T21:03:21.769Z,24.35
2019-04-25T21:05:53.049Z,24.18
2019-04-25T21:08:20.983Z,24.21
2019-04-25T21:10:50.454Z,24.20
2019-04-25T21:13:24.365Z,24.05
2019-04-25T21:16:05.063Z,24.23
2019-04-25T21:18:55.260Z,24.07
2019-04-25T21:21:23.045Z,23.97
2019-04-25T21:23:51.822Z,24.16
2019-04-25T21:26:20.397Z,23.85
2019-04-25T21:28:48.173Z,24.05
2019-04-25T21:31:16.105Z,24.11
2019-04-25T21:33:43.929Z,24.01
2019-04-25T21:36:11.948Z,23.92
2019-04-25T21:38:40.204Z,23.83
2019-04-25T21:41:25.874Z,24.03
2019-04-25T21:43:59.005Z,24.10
2019-04-25T21:46:27.844Z,24.01
2019-04-25T21:48:56.861Z,23.76
2019-04-25T21:51:33.999Z,24.02
2019-04-25T21:54:04.434Z,23.80
2019-04-25T21:56:32.555Z,23.75
2019-04-25T21:59:00.466Z,23.74
2019-04-25T22:01:31.646Z,23.81
2019-04-25T22:03:59.648Z,23.85
2019-04-25T22:06:28.649Z,23.82
2019-04-25T22:08:56.674Z,23.61
2019-04-25T22:11:24.922Z,23.39
2019-04-25T22:13:52.964Z,23.70
2019-04-25T22:16:21.120Z,23.80
2019-04-25T22:18:49.163Z,23.48
2019-04-25T22:21:17.114Z,23.75
2019-04-25T22:23:45.344Z,23.65
2019-04-25T22:26:13.195Z,23.69
2019-04-25T22:28:41.339Z,23.73
2019-04-25T22:31:14.304Z,23.74
2019-04-25T22:33:51.210Z,23.89
2019-04-25T22:36:21.117Z,23.85
2019-04-25T22:39:08.678Z,23.91
2019-04-25T22:41:37.007Z,23.74
2019-04-25T22:44:06.075Z,23.62
2019-04-25T22:46:34.254Z,23.64
2019-04-25T22:49:03.446Z,23.75
2019-04-25T22:51:31.404Z,23.70
2019-04-25T22:53:59.503Z,23.66
2019-04-25T22:56:27.344Z,23.59
2019-04-25T22:58:55.328Z,23.55
2019-04-25T23:01:45.301Z,23.47
2019-04-25T23:04:18.972Z,23.50
2019-04-25T23:06:46.816Z,23.60
2019-04-25T23:09:14.579Z,23.60
2019-04-25T23:11:42.615Z,23.69
2019-04-25T23:14:10.943Z,23.71
2019-04-25T23:16:38.853Z,23.76
2019-04-25T23:19:07.280Z,23.69
2019-04-25T23:21:35.381Z,23.35
2019-04-25T23:24:03.460Z,22.94
2019-04-25T23:26:51.248Z,23.36
2019-04-25T23:29:19.100Z,23.34
2019-04-25T23:31:46.888Z,23.30
2019-04-25T23:34:15.264Z,23.36
2019-04-25T23:36:43.093Z,23.33
2019-04-25T23:39:11.551Z,23.47
2019-04-25T23:41:39.688Z,23.55
2019-04-25T23:44:07.951Z,23.45
2019-04-25T23:46:36.135Z,23.28
2019-04-25T23:49:04.801Z,23.39
2019-04-25T23:51:32.627Z,23.47
2019-04-25T23:54:00.768Z,23.46
2019-04-25T23:56:28.560Z,23.34
2019-04-25T23:58:56.576Z,23.41
